Time;durP1;ratioP1;P1;durP2;ratioP2;P2;SDS_P1;SDS_P2;PMS_P1;PMS_P2;Temp;Humidity;BMP_temperature;BMP_pressure;BME280_temperature;BME280_humidity;BME280_pressure;Samples;Min_cycle;Max_cycle;Signal;HPM_P1;HPM_P2
2021/04/07 00:00:43;;;;;;;7.07;1.77;;;1.20;99.90;;;;;;4996224;28;21013;-55
2021/04/07 00:03:10;;;;;;;6.00;1.37;;;1.20;99.90;;;;;;4987395;28;20594;-53
2021/04/07 00:05:38;;;;;;;9.47;1.37;;;1.20;99.90;;;;;;4993382;28;20215;-56
2021/04/07 00:08:05;;;;;;;10.97;1.63;;;1.20;99.90;;;;;;5000300;28;20219;-52
2021/04/07 00:10:33;;;;;;;7.27;1.67;;;1.20;99.90;;;;;;5000717;28;20216;-57
2021/04/07 00:12:59;;;;;;;7.27;2.00;;;1.20;99.90;;;;;;5004982;28;20206;-58
2021/04/07 00:15:27;;;;;;;6.30;1.23;;;1.20;99.90;;;;;;4996201;28;20275;-50
2021/04/07 00:17:54;;;;;;;6.67;1.90;;;1.10;99.90;;;;;;4986974;28;20834;-48
2021/04/07 00:20:27;;;;;;;6.17;1.20;;;1.10;99.90;;;;;;4995131;28;20588;-53
2021/04/07 00:22:53;;;;;;;7.70;1.43;;;1.10;99.90;;;;;;4998867;28;20680;-52
2021/04/07 00:25:21;;;;;;;8.37;1.40;;;1.10;99.90;;;;;;5000721;28;20789;-54
2021/04/07 00:27:54;;;;;;;6.73;2.03;;;1.10;99.90;;;;;;5003772;28;20205;-58
2021/04/07 00:30:22;;;;;;;12.53;2.27;;;1.10;99.90;;;;;;4994641;28;20303;-54
2021/04/07 00:32:50;;;;;;;7.03;1.73;;;1.10;99.90;;;;;;4988818;28;20289;-56
2021/04/07 00:35:16;;;;;;;8.07;1.97;;;1.10;99.90;;;;;;4993794;28;20201;-53
2021/04/07 00:37:42;;;;;;;7.23;1.10;;;1.10;99.90;;;;;;4995368;28;23123;-58
2021/04/07 00:40:09;;;;;;;7.33;1.17;;;1.10;99.90;;;;;;5003638;28;20227;-54
2021/04/07 00:42:37;;;;;;;4.77;1.50;;;1.10;99.90;;;;;;5001929;28;20951;-53
2021/04/07 00:45:04;;;;;;;9.30;1.37;;;1.00;99.90;;;;;;5003253;28;20271;-54
2021/04/07 00:47:31;;;;;;;3.20;1.20;;;1.00;99.90;;;;;;4979248;28;21216;-55
2021/04/07 00:49:58;;;;;;;3.20;1.20;;;1.10;99.90;;;;;;4990259;28;20315;-56
2021/04/07 00:52:25;;;;;;;7.67;1.10;;;1.10;99.90;;;;;;4997946;28;20211;-58
2021/04/07 00:54:52;;;;;;;8.73;1.27;;;1.10;99.90;;;;;;4999310;28;20248;-51
2021/04/07 00:57:18;;;;;;;9.57;1.60;;;1.10;99.90;;;;;;5000077;28;20669;-55
2021/04/07 00:59:46;;;;;;;10.33;1.73;;;1.10;99.90;;;;;;4999367;28;20216;-48
2021/04/07 01:02:13;;;;;;;10.37;1.40;;;1.10;99.90;;;;;;5001017;28;20225;-56
2021/04/07 01:04:39;;;;;;;9.37;1.33;;;1.10;99.90;;;;;;4990619;28;20193;-51
2021/04/07 01:07:07;;;;;;;7.50;1.43;;;1.10;99.90;;;;;;5006069;28;20571;-55
2021/04/07 01:09:33;;;;;;;4.37;1.33;;;1.10;99.90;;;;;;4998136;28;20216;-48
2021/04/07 01:11:59;;;;;;;5.90;1.10;;;1.10;99.90;;;;;;5006949;28;20762;-47
2021/04/07 01:14:25;;;;;;;9.33;1.90;;;1.10;99.90;;;;;;5001351;28;20212;-47
2021/04/07 01:16:52;;;;;;;8.20;2.40;;;1.10;99.90;;;;;;4999233;28;20204;-48
2021/04/07 01:19:21;;;;;;;6.33;1.40;;;1.10;99.90;;;;;;4992689;28;20217;-58
2021/04/07 01:21:48;;;;;;;8.90;1.53;;;1.10;99.90;;;;;;4997451;28;20214;-58
2021/04/07 01:24:15;;;;;;;6.00;1.63;;;1.20;99.90;;;;;;4998565;28;20213;-53
2021/04/07 01:26:41;;;;;;;7.27;1.43;;;1.20;99.90;;;;;;5006677;28;20215;-58
2021/04/07 01:29:07;;;;;;;7.20;1.90;;;1.20;99.90;;;;;;4999810;28;20211;-53
2021/04/07 01:31:44;;;;;;;11.67;1.43;;;1.20;99.90;;;;;;5000379;28;20199;-58
2021/04/07 01:34:17;;;;;;;8.93;1.90;;;1.30;99.90;;;;;;5002755;28;20202;-54
2021/04/07 01:36:43;;;;;;;8.03;1.27;;;1.30;99.90;;;;;;4989865;28;20787;-49
2021/04/07 01:39:09;;;;;;;10.27;1.80;;;1.30;99.90;;;;;;4992856;28;20717;-55
2021/04/07 01:41:38;;;;;;;9.50;1.70;;;1.30;99.90;;;;;;5003631;28;20367;-48
2021/04/07 01:44:05;;;;;;;8.83;1.67;;;1.30;99.90;;;;;;5006323;28;20288;-48
2021/04/07 01:46:32;;;;;;;8.17;1.40;;;1.40;99.90;;;;;;5002917;28;20223;-52
2021/04/07 01:48:59;;;;;;;12.93;1.57;;;1.40;99.90;;;;;;5002008;28;20418;-53
2021/04/07 01:51:26;;;;;;;6.87;1.67;;;1.40;99.90;;;;;;4987365;28;20253;-52
2021/04/07 01:53:58;;;;;;;5.27;1.33;;;1.40;99.90;;;;;;4999335;28;20199;-51
2021/04/07 01:56:24;;;;;;;6.67;1.67;;;1.40;99.90;;;;;;4996373;28;20194;-50
2021/04/07 01:58:57;;;;;;;7.00;1.30;;;1.40;99.90;;;;;;5004835;28;20243;-56
2021/04/07 02:01:23;;;;;;;8.77;2.93;;;1.50;99.90;;;;;;5002248;28;20339;-54
2021/04/07 02:03:50;;;;;;;5.00;1.20;;;1.50;99.90;;;;;;5001892;28;20279;-48
2021/04/07 02:06:16;;;;;;;1.93;1.00;;;1.50;99.90;;;;;;4994345;28;20225;-54
2021/04/07 02:08:42;;;;;;;7.93;1.70;;;1.50;99.90;;;;;;4995384;28;20197;-50
2021/04/07 02:11:08;;;;;;;7.47;1.30;;;1.50;99.90;;;;;;4999755;28;20282;-55
2021/04/07 02:13:34;;;;;;;6.17;1.20;;;1.50;99.90;;;;;;5002955;28;20949;-56
2021/04/07 02:16:08;;;;;;;6.27;1.40;;;1.50;99.90;;;;;;5006168;28;20221;-53
2021/04/07 02:18:34;;;;;;;13.53;1.70;;;1.60;99.90;;;;;;5003899;28;20193;-55
2021/04/07 02:21:00;;;;;;;10.80;1.40;;;1.60;99.90;;;;;;5002779;28;20368;-56
2021/04/07 02:23:27;;;;;;;4.00;1.43;;;1.60;99.90;;;;;;4984368;28;20299;-54
2021/04/07 02:25:53;;;;;;;5.63;1.40;;;1.60;99.90;;;;;;4994226;28;20599;-47
2021/04/07 02:28:19;;;;;;;6.63;1.37;;;1.60;99.90;;;;;;5001717;28;20639;-55
2021/04/07 02:30:45;;;;;;;5.77;0.90;;;1.60;99.90;;;;;;5000592;28;20233;-56
2021/04/07 02:33:12;;;;;;;8.17;1.67;;;1.60;99.90;;;;;;5005102;28;20207;-54
2021/04/07 02:35:38;;;;;;;11.30;1.43;;;1.60;99.90;;;;;;4999090;28;20581;-50
2021/04/07 02:38:07;;;;;;;9.83;1.67;;;1.60;99.90;;;;;;5019476;28;20245;-54
2021/04/07 02:40:33;;;;;;;9.97;1.90;;;1.60;99.90;;;;;;4983899;28;20222;-52
2021/04/07 02:43:00;;;;;;;8.37;1.33;;;1.60;99.90;;;;;;5000077;28;20585;-53
2021/04/07 02:45:26;;;;;;;9.83;2.13;;;1.50;99.90;;;;;;5001648;28;20210;-57
2021/04/07 02:47:52;;;;;;;5.70;1.47;;;1.50;99.90;;;;;;5006417;28;20210;-55
2021/04/07 02:50:19;;;;;;;7.17;2.33;;;1.50;99.90;;;;;;5003013;28;20720;-54
2021/04/07 02:52:45;;;;;;;8.43;1.50;;;1.50;99.90;;;;;;5001237;28;20240;-47
2021/04/07 02:55:12;;;;;;;7.20;1.47;;;1.50;99.90;;;;;;4981450;28;20705;-55
2021/04/07 02:57:38;;;;;;;6.67;1.40;;;1.50;99.90;;;;;;4993601;28;20206;-51
2021/04/07 03:00:07;;;;;;;6.67;1.63;;;1.50;99.90;;;;;;4999093;28;20238;-56
2021/04/07 03:02:34;;;;;;;7.37;1.40;;;1.40;99.90;;;;;;4998456;28;20285;-49
2021/04/07 03:05:00;;;;;;;7.40;1.40;;;1.50;99.90;;;;;;5004962;28;20211;-58
2021/04/07 03:07:27;;;;;;;7.23;1.20;;;1.50;99.90;;;;;;4998176;28;20225;-54
2021/04/07 03:09:53;;;;;;;7.30;1.97;;;1.40;99.90;;;;;;4988787;28;20246;-50
2021/04/07 03:12:20;;;;;;;8.33;2.03;;;1.50;99.90;;;;;;4991646;28;20308;-52
2021/04/07 03:14:46;;;;;;;7.60;1.87;;;1.50;99.90;;;;;;4999924;28;20192;-51
2021/04/07 03:17:12;;;;;;;5.30;1.40;;;1.50;99.90;;;;;;5002836;28;20199;-55
2021/04/07 03:19:38;;;;;;;7.67;1.30;;;1.50;99.90;;;;;;5002037;28;20219;-50
2021/04/07 03:22:04;;;;;;;10.30;2.40;;;1.50;99.90;;;;;;5003951;28;20208;-54
2021/04/07 03:24:32;;;;;;;12.80;1.57;;;1.40;99.90;;;;;;4989522;28;20217;-48
2021/04/07 03:26:58;;;;;;;9.23;1.73;;;1.40;99.90;;;;;;4984535;28;20242;-51
2021/04/07 03:29:24;;;;;;;8.60;1.27;;;1.40;99.90;;;;;;4991160;28;20235;-52
2021/04/07 03:31:52;;;;;;;5.00;1.60;;;1.40;99.90;;;;;;5003378;28;20207;-48
2021/04/07 03:34:18;;;;;;;7.40;1.17;;;1.40;99.90;;;;;;4999490;28;20258;-55
2021/04/07 03:36:44;;;;;;;13.63;2.27;;;1.30;99.90;;;;;;4993865;28;20192;-58
2021/04/07 03:39:11;;;;;;;10.73;1.90;;;1.30;99.90;;;;;;4999570;28;20641;-53
2021/04/07 03:41:38;;;;;;;2.53;1.03;;;1.30;99.90;;;;;;4986592;28;20915;-54
2021/04/07 03:44:04;;;;;;;8.03;1.60;;;1.20;99.90;;;;;;4997385;28;20207;-52
2021/04/07 03:46:30;;;;;;;7.70;1.20;;;1.20;99.90;;;;;;4994976;28;20223;-54
2021/04/07 03:48:56;;;;;;;3.63;1.13;;;1.20;99.90;;;;;;5003636;28;20289;-57
2021/04/07 03:51:23;;;;;;;8.83;1.80;;;1.20;99.90;;;;;;5000204;28;20286;-55
2021/04/07 03:53:49;;;;;;;7.90;2.50;;;1.10;99.90;;;;;;4999936;28;20252;-55
2021/04/07 03:56:15;;;;;;;8.47;2.17;;;1.10;99.90;;;;;;5001788;28;20609;-53
2021/04/07 03:58:42;;;;;;;4.77;1.50;;;1.10;99.90;;;;;;4979593;28;20219;-52
2021/04/07 04:01:08;;;;;;;7.87;1.50;;;1.10;99.90;;;;;;4990337;28;20308;-53
2021/04/07 04:03:34;;;;;;;5.83;1.37;;;1.10;99.90;;;;;;4995962;28;20216;-56
2021/04/07 04:06:00;;;;;;;8.33;1.50;;;1.00;99.90;;;;;;5000951;28;20216;-54
2021/04/07 04:08:27;;;;;;;9.73;1.87;;;1.00;99.90;;;;;;4984567;28;20925;-53
2021/04/07 04:10:54;;;;;;;8.07;1.67;;;0.90;99.90;;;;;;4998155;28;20590;-55
2021/04/07 04:13:21;;;;;;;7.53;1.87;;;0.90;99.90;;;;;;4985445;28;20233;-53
2021/04/07 04:15:48;;;;;;;14.73;1.87;;;0.90;99.90;;;;;;4996749;28;20213;-56
2021/04/07 04:18:14;;;;;;;7.27;1.60;;;0.90;99.90;;;;;;4989533;28;20200;-58
2021/04/07 04:20:40;;;;;;;6.20;1.80;;;0.90;99.90;;;;;;4997412;28;20222;-52
2021/04/07 04:23:06;;;;;;;6.60;1.53;;;0.90;99.90;;;;;;4994712;28;20204;-58
2021/04/07 04:25:33;;;;;;;6.73;1.90;;;0.90;99.90;;;;;;4990224;28;20336;-53
2021/04/07 04:27:59;;;;;;;4.93;1.53;;;0.80;99.90;;;;;;5001391;28;20975;-55
2021/04/07 04:30:27;;;;;;;4.57;1.57;;;0.80;99.90;;;;;;4973117;28;20320;-56
2021/04/07 04:32:54;;;;;;;5.13;1.33;;;0.80;99.90;;;;;;4997077;28;20197;-55
2021/04/07 04:35:20;;;;;;;5.40;1.63;;;0.80;99.90;;;;;;4991918;28;20218;-55
2021/04/07 04:37:47;;;;;;;9.97;2.30;;;0.70;99.90;;;;;;4997764;28;20198;-55
2021/04/07 04:40:14;;;;;;;11.17;2.60;;;0.70;99.90;;;;;;4987089;28;20328;-54
2021/04/07 04:42:41;;;;;;;9.67;2.33;;;0.70;99.90;;;;;;5001779;28;20263;-48
2021/04/07 04:45:08;;;;;;;4.93;1.30;;;0.70;99.90;;;;;;4983385;28;20243;-55
2021/04/07 04:47:35;;;;;;;12.30;2.50;;;0.70;99.90;;;;;;4996389;28;20869;-50
2021/04/07 04:50:03;;;;;;;5.73;1.60;;;0.70;99.90;;;;;;4999251;28;20216;-56
2021/04/07 04:52:29;;;;;;;8.23;1.80;;;0.60;99.90;;;;;;4987919;28;20940;-50
2021/04/07 04:54:56;;;;;;;8.17;1.90;;;0.60;99.90;;;;;;5017824;28;20552;-51
2021/04/07 04:57:22;;;;;;;4.87;1.30;;;0.70;99.90;;;;;;4990883;28;20189;-51
2021/04/07 04:59:48;;;;;;;11.47;1.50;;;0.60;99.90;;;;;;4986123;28;20230;-53
2021/04/07 05:02:14;;;;;;;6.13;1.90;;;0.70;99.90;;;;;;4993532;28;20673;-57
2021/04/07 05:04:40;;;;;;;8.40;2.33;;;0.70;99.90;;;;;;5000136;28;20210;-49
2021/04/07 05:07:07;;;;;;;9.73;2.10;;;0.70;99.90;;;;;;4995450;28;20219;-57
2021/04/07 05:09:34;;;;;;;5.40;1.57;;;0.70;99.90;;;;;;4996460;28;20223;-47
2021/04/07 05:12:00;;;;;;;7.43;2.33;;;0.70;99.90;;;;;;4995847;28;20205;-55
2021/04/07 05:14:26;;;;;;;5.43;1.77;;;0.70;99.90;;;;;;4995229;28;20282;-54
2021/04/07 05:16:52;;;;;;;9.27;2.73;;;0.70;99.90;;;;;;4980395;28;20206;-50
2021/04/07 05:19:18;;;;;;;3.00;1.13;;;0.80;99.90;;;;;;4995531;28;20901;-52
2021/04/07 05:21:45;;;;;;;6.13;1.77;;;0.80;99.90;;;;;;5002922;28;20209;-51
2021/04/07 05:24:12;;;;;;;12.20;2.77;;;0.80;99.90;;;;;;4995490;28;20229;-57
2021/04/07 05:26:38;;;;;;;11.63;2.60;;;0.90;99.90;;;;;;4996912;28;20216;-52
2021/04/07 05:29:05;;;;;;;4.87;1.97;;;0.90;99.90;;;;;;4996675;28;20672;-55
2021/04/07 05:31:32;;;;;;;10.20;2.20;;;0.90;99.90;;;;;;4982809;28;20212;-56
2021/04/07 05:33:59;;;;;;;9.03;1.97;;;0.90;99.90;;;;;;4987799;28;20281;-54
2021/04/07 05:36:25;;;;;;;9.27;1.67;;;0.90;99.90;;;;;;4995799;28;20198;-51
2021/04/07 05:38:51;;;;;;;4.10;1.40;;;0.90;99.90;;;;;;4997232;28;20210;-49
2021/04/07 05:41:19;;;;;;;5.57;1.77;;;0.90;99.90;;;;;;4991516;28;20201;-56
2021/04/07 05:43:45;;;;;;;15.73;3.03;;;1.00;99.90;;;;;;4998226;28;20211;-54
2021/04/07 05:46:12;;;;;;;8.07;1.63;;;1.00;99.90;;;;;;4999331;28;20217;-57
2021/04/07 05:48:38;;;;;;;6.70;2.27;;;1.00;99.90;;;;;;4986723;28;20214;-53
2021/04/07 05:51:06;;;;;;;8.70;2.30;;;1.00;99.90;;;;;;4997284;28;20628;-54
2021/04/07 05:53:32;;;;;;;11.97;1.93;;;1.10;99.90;;;;;;4999233;28;20227;-57
2021/04/07 05:55:59;;;;;;;7.70;1.77;;;1.10;99.90;;;;;;5006298;28;20204;-52
2021/04/07 05:58:29;;;;;;;17.37;3.90;;;1.10;99.90;;;;;;4998174;28;20229;-51
2021/04/07 06:00:56;;;;;;;8.73;1.80;;;1.20;99.90;;;;;;5001406;28;20593;-54
2021/04/07 06:03:23;;;;;;;11.17;2.00;;;1.20;99.90;;;;;;4985397;28;20890;-52
2021/04/07 06:05:50;;;;;;;7.00;1.87;;;1.20;99.90;;;;;;5000573;28;20209;-55
2021/04/07 06:08:18;;;;;;;9.53;2.07;;;1.20;99.90;;;;;;4995876;28;20285;-54
2021/04/07 06:10:46;;;;;;;9.93;2.43;;;1.30;99.90;;;;;;5000922;28;20304;-53
2021/04/07 06:13:14;;;;;;;2.87;1.63;;;1.30;99.90;;;;;;4998979;28;20297;-53
2021/04/07 06:15:41;;;;;;;9.73;2.10;;;1.30;99.90;;;;;;5006518;28;20209;-58
2021/04/07 06:18:09;;;;;;;4.67;2.00;;;1.30;99.90;;;;;;4992544;28;20268;-50
2021/04/07 06:20:37;;;;;;;8.43;1.97;;;1.30;99.90;;;;;;4993728;28;20926;-52
2021/04/07 06:23:04;;;;;;;4.63;2.00;;;1.30;99.90;;;;;;5004064;28;20199;-54
2021/04/07 06:25:31;;;;;;;8.30;2.20;;;1.30;99.90;;;;;;4996940;28;20200;-49
2021/04/07 06:27:59;;;;;;;6.73;1.73;;;1.30;99.90;;;;;;4998871;28;20258;-49
2021/04/07 06:30:41;;;;;;;4.97;1.87;;;1.30;99.90;;;;;;4996055;28;20256;-50
2021/04/07 06:33:09;;;;;;;8.03;2.03;;;1.30;99.90;;;;;;4998645;28;20631;-55
2021/04/07 06:35:35;;;;;;;4.50;2.00;;;1.30;99.90;;;;;;4978730;28;20199;-54
2021/04/07 06:38:01;;;;;;;8.73;3.10;;;1.30;99.90;;;;;;5003433;28;20230;-52
2021/04/07 06:40:28;;;;;;;5.77;2.20;;;1.30;99.90;;;;;;4992608;28;20223;-57
2021/04/07 06:42:54;;;;;;;6.43;2.00;;;1.40;99.90;;;;;;4999499;28;20206;-53
2021/04/07 06:45:21;;;;;;;6.83;2.20;;;1.40;99.90;;;;;;4989057;28;20203;-53
2021/04/07 06:47:49;;;;;;;12.07;1.93;;;1.40;99.90;;;;;;4999457;28;20583;-55
2021/04/07 06:50:16;;;;;;;7.13;1.70;;;1.40;99.90;;;;;;4980384;28;20679;-57
2021/04/07 06:52:44;;;;;;;7.80;2.33;;;1.40;99.90;;;;;;5004140;28;20604;-50
2021/04/07 06:55:11;;;;;;;2.60;1.40;;;1.50;99.90;;;;;;4985589;28;20337;-49
2021/04/07 06:57:37;;;;;;;11.97;3.00;;;1.50;99.90;;;;;;4980470;28;20207;-59
2021/04/07 07:00:07;;;;;;;11.63;2.73;;;1.50;99.90;;;;;;4986563;28;20389;-49
2021/04/07 07:02:34;;;;;;;4.57;1.93;;;1.50;99.90;;;;;;4999815;28;20207;-56
2021/04/07 07:05:01;;;;;;;5.90;2.43;;;1.50;99.90;;;;;;4996655;28;20282;-50
2021/04/07 07:07:28;;;;;;;5.77;3.27;;;1.50;99.90;;;;;;4999005;28;20277;-51
2021/04/07 07:09:55;;;;;;;12.90;2.70;;;1.50;99.90;;;;;;4989394;28;20218;-50
2021/04/07 07:12:22;;;;;;;3.83;2.00;;;1.60;99.90;;;;;;4995209;28;20826;-52
2021/04/07 07:14:48;;;;;;;6.70;2.07;;;1.60;99.90;;;;;;4988014;28;20206;-56
2021/04/07 07:17:25;;;;;;;6.03;1.40;;;1.60;99.90;;;;;;4998519;28;20232;-48
2021/04/07 07:19:51;;;;;;;3.17;1.30;;;1.50;99.90;;;;;;4995175;28;20218;-52
2021/04/07 07:22:21;;;;;;;4.67;1.77;;;1.50;99.90;;;;;;4986385;28;20581;-53
2021/04/07 07:24:51;;;;;;;7.43;2.63;;;1.50;99.90;;;;;;4995432;28;20206;-56
2021/04/07 07:27:17;;;;;;;3.50;1.40;;;1.50;99.90;;;;;;4992049;28;20217;-59
2021/04/07 07:29:54;;;;;;;2.83;1.37;;;1.50;99.90;;;;;;4990750;28;20308;-54
2021/04/07 07:32:20;;;;;;;3.80;1.80;;;1.40;99.90;;;;;;4996907;28;20621;-53
2021/04/07 07:34:46;;;;;;;3.57;1.90;;;1.50;99.90;;;;;;4990419;28;20208;-58
2021/04/07 07:37:23;;;;;;;3.50;1.63;;;1.50;99.90;;;;;;4999132;28;20562;-52
2021/04/07 07:39:50;;;;;;;2.63;1.37;;;1.50;99.90;;;;;;4975252;28;20272;-50
2021/04/07 07:42:17;;;;;;;5.70;1.67;;;1.50;99.90;;;;;;5000423;28;20529;-52
2021/04/07 07:44:44;;;;;;;6.03;1.73;;;1.50;99.90;;;;;;4987522;28;20214;-56
2021/04/07 07:47:17;;;;;;;5.20;2.40;;;1.50;99.90;;;;;;4994663;28;20617;-49
2021/04/07 07:49:54;;;;;;;4.77;1.83;;;1.60;99.90;;;;;;4991913;28;20222;-57
2021/04/07 07:52:30;;;;;;;4.97;1.37;;;1.70;99.90;;;;;;5000880;28;20760;-53
2021/04/07 07:54:58;;;;;;;6.00;1.83;;;1.70;99.90;;;;;;4977524;28;20212;-52
2021/04/07 07:57:25;;;;;;;3.90;1.60;;;1.70;99.90;;;;;;4995930;28;20220;-47
2021/04/07 07:59:56;;;;;;;12.13;3.57;;;1.70;99.90;;;;;;4992793;28;20305;-48
2021/04/07 08:02:26;;;;;;;9.50;3.40;;;1.80;99.90;;;;;;4991426;28;20210;-49
2021/04/07 08:04:52;;;;;;;7.93;2.70;;;1.90;99.90;;;;;;5013933;28;20229;-53
2021/04/07 08:07:19;;;;;;;6.63;3.10;;;2.00;99.90;;;;;;4992808;28;20980;-55
2021/04/07 08:09:45;;;;;;;11.63;3.93;;;2.00;99.90;;;;;;4984226;28;20293;-52
2021/04/07 08:12:16;;;;;;;12.37;4.97;;;2.10;99.90;;;;;;4999004;28;20719;-52
2021/04/07 08:14:47;;;;;;;12.80;5.67;;;2.20;99.90;;;;;;4996413;28;20206;-56
2021/04/07 08:17:14;;;;;;;15.87;4.00;;;2.20;99.90;;;;;;4993895;28;20229;-52
2021/04/07 08:19:42;;;;;;;4.77;3.23;;;2.20;99.90;;;;;;5001446;28;20719;-57
2021/04/07 08:22:11;;;;;;;4.10;3.70;;;2.20;99.90;;;;;;4994484;28;20691;-56
2021/04/07 08:24:39;;;;;;;7.97;4.73;;;2.30;99.90;;;;;;5001440;28;20212;-52
2021/04/07 08:27:08;;;;;;;8.60;4.70;;;2.30;99.90;;;;;;5002023;28;20223;-55
2021/04/07 08:29:37;;;;;;;5.93;3.20;;;2.30;99.90;;;;;;4996111;28;20332;-57
2021/04/07 08:32:03;;;;;;;3.67;2.93;;;2.30;99.90;;;;;;5000942;28;20257;-59
2021/04/07 08:34:30;;;;;;;3.77;2.43;;;2.30;99.90;;;;;;4996431;28;20332;-52
2021/04/07 08:36:56;;;;;;;2.50;1.67;;;2.20;99.90;;;;;;4997204;28;20210;-52
2021/04/07 08:39:24;;;;;;;1.97;1.77;;;2.20;99.90;;;;;;4978187;28;20229;-51
2021/04/07 08:41:50;;;;;;;1.97;1.67;;;2.20;99.90;;;;;;5000252;28;20200;-57
2021/04/07 08:44:18;;;;;;;4.20;1.60;;;2.20;99.90;;;;;;4994768;28;20256;-53
2021/04/07 08:46:49;;;;;;;4.23;1.77;;;2.30;99.90;;;;;;4997164;28;20365;-56
2021/04/07 08:49:35;;;;;;;2.93;1.70;;;2.40;99.90;;;;;;4993358;28;20665;-53
2021/04/07 08:52:12;;;;;;;5.50;2.13;;;2.40;99.90;;;;;;4993367;28;20203;-54
2021/04/07 08:54:46;;;;;;;5.10;1.77;;;2.40;99.90;;;;;;4998366;28;20226;-48
2021/04/07 08:57:29;;;;;;;3.13;1.53;;;2.40;99.90;;;;;;4972970;28;20214;-53
2021/04/07 08:59:55;;;;;;;4.60;1.93;;;2.40;99.90;;;;;;4997495;28;20336;-49
2021/04/07 09:02:23;;;;;;;3.23;1.70;;;2.50;99.90;;;;;;4987078;28;20252;-50
2021/04/07 09:05:01;;;;;;;3.13;1.80;;;2.50;99.90;;;;;;4992969;28;20213;-55
2021/04/07 09:07:40;;;;;;;6.40;2.53;;;2.50;99.90;;;;;;4989393;28;20220;-54
2021/04/07 09:10:11;;;;;;;3.90;1.90;;;2.60;99.90;;;;;;4999685;28;20541;-56
2021/04/07 09:12:39;;;;;;;4.33;2.10;;;2.60;99.90;;;;;;4977994;28;20223;-55
2021/04/07 09:15:20;;;;;;;7.87;3.40;;;2.70;99.90;;;;;;5000576;28;20195;-55
2021/04/07 09:17:49;;;;;;;3.53;2.23;;;2.70;99.90;;;;;;4985843;28;20265;-57
2021/04/07 09:20:35;;;;;;;8.57;2.60;;;2.80;99.90;;;;;;4996408;28;20242;-53
2021/04/07 09:23:12;;;;;;;7.43;3.27;;;2.80;99.90;;;;;;5000390;28;20199;-54
2021/04/07 09:25:45;;;;;;;5.03;2.23;;;2.90;99.90;;;;;;4991299;28;20211;-54
2021/04/07 09:28:11;;;;;;;3.43;2.40;;;2.90;99.90;;;;;;5001545;28;20601;-56
2021/04/07 09:30:48;;;;;;;5.97;2.33;;;2.90;99.90;;;;;;5001001;28;20314;-52
2021/04/07 09:33:17;;;;;;;5.70;3.03;;;3.00;99.90;;;;;;4998905;28;20210;-55
2021/04/07 09:35:55;;;;;;;7.87;3.27;;;3.10;99.90;;;;;;4998213;28;20295;-55
2021/04/07 09:38:21;;;;;;;5.87;2.57;;;3.20;99.90;;;;;;5006550;28;20200;-54
2021/04/07 09:40:48;;;;;;;8.23;3.27;;;3.20;99.90;;;;;;4997352;28;20293;-56
2021/04/07 09:43:14;;;;;;;15.40;4.03;;;3.20;99.90;;;;;;4986741;28;20219;-52
2021/04/07 09:45:40;;;;;;;11.63;4.00;;;3.30;99.90;;;;;;4989455;28;20630;-58
2021/04/07 09:48:08;;;;;;;5.20;2.90;;;3.30;99.90;;;;;;4997294;28;20281;-51
2021/04/07 09:50:35;;;;;;;3.63;2.50;;;3.30;99.90;;;;;;5000527;28;20233;-56
2021/04/07 09:53:01;;;;;;;11.43;4.30;;;3.20;99.90;;;;;;4993614;28;20207;-50
2021/04/07 09:55:29;;;;;;;9.87;3.70;;;3.20;99.90;;;;;;4997725;28;20222;-55
2021/04/07 09:58:00;;;;;;;6.80;3.50;;;3.30;99.90;;;;;;4984015;28;20778;-53
2021/04/07 10:00:30;;;;;;;9.40;3.93;;;3.30;99.90;;;;;;4994559;28;20223;-51
2021/04/07 10:02:57;;;;;;;6.37;3.37;;;3.30;99.90;;;;;;4999342;28;20291;-51
2021/04/07 10:05:28;;;;;;;7.03;4.17;;;3.30;99.90;;;;;;4993576;28;20696;-50
2021/04/07 10:08:11;;;;;;;23.87;7.50;;;3.40;99.90;;;;;;4994539;28;20218;-52
2021/04/07 10:10:37;;;;;;;12.23;5.03;;;3.60;99.90;;;;;;4996198;28;20219;-55
2021/04/07 10:13:04;;;;;;;12.47;6.13;;;3.70;99.90;;;;;;4982696;28;20390;-55
2021/04/07 10:15:30;;;;;;;11.37;5.20;;;3.90;99.90;;;;;;5003010;28;20201;-53
2021/04/07 10:17:56;;;;;;;12.90;6.30;;;4.00;99.90;;;;;;4996546;28;20197;-51
2021/04/07 10:20:28;;;;;;;9.97;5.97;;;4.10;99.90;;;;;;4996121;28;20224;-53
2021/04/07 10:22:56;;;;;;;11.90;5.37;;;4.20;99.90;;;;;;4997249;28;20201;-54
2021/04/07 10:25:26;;;;;;;14.83;5.57;;;4.30;99.90;;;;;;5000020;28;20701;-54
2021/04/07 10:27:53;;;;;;;15.13;5.20;;;4.40;99.90;;;;;;4980405;28;20227;-55
2021/04/07 10:30:35;;;;;;;4.47;2.90;;;4.50;99.90;;;;;;4999128;28;20295;-52
2021/04/07 10:33:02;;;;;;;12.80;4.10;;;4.50;99.90;;;;;;4999231;28;20201;-52
2021/04/07 10:35:31;;;;;;;20.53;6.97;;;4.60;99.90;;;;;;4998064;28;20200;-53
2021/04/07 10:37:59;;;;;;;9.10;4.83;;;4.70;99.90;;;;;;4994014;28;20296;-52
2021/04/07 10:40:27;;;;;;;19.70;7.33;;;4.80;99.90;;;;;;5005189;28;20295;-50
2021/04/07 10:42:53;;;;;;;7.30;4.60;;;4.70;99.90;;;;;;4997898;28;20193;-51
2021/04/07 10:45:21;;;;;;;8.23;4.90;;;4.90;99.90;;;;;;4979451;28;20283;-49
2021/04/07 10:47:49;;;;;;;16.83;5.33;;;4.90;99.90;;;;;;4996003;28;20244;-54
2021/04/07 10:50:16;;;;;;;7.33;2.97;;;4.90;99.90;;;;;;4993974;28;20248;-54
2021/04/07 10:52:45;;;;;;;9.63;2.83;;;4.90;99.90;;;;;;4995479;28;20211;-51
2021/04/07 10:55:14;;;;;;;3.47;2.37;;;4.90;99.90;;;;;;5001340;28;20273;-57
2021/04/07 10:57:43;;;;;;;6.70;2.67;;;5.00;99.90;;;;;;4998500;28;20700;-51
2021/04/07 11:00:12;;;;;;;12.50;2.63;;;5.00;99.90;;;;;;4979047;28;20271;-54
2021/04/07 11:02:46;;;;;;;3.00;1.90;;;5.20;99.90;;;;;;4995611;28;20419;-56
2021/04/07 11:05:18;;;;;;;2.37;2.17;;;5.30;99.90;;;;;;4993716;28;20223;-55
2021/04/07 11:07:44;;;;;;;3.90;2.60;;;5.40;99.90;;;;;;4989406;28;20283;-53
2021/04/07 11:10:13;;;;;;;5.67;2.90;;;5.40;99.90;;;;;;4994381;28;20223;-54
2021/04/07 11:12:40;;;;;;;6.73;3.57;;;5.50;99.90;;;;;;4992311;28;20208;-56
2021/04/07 11:15:08;;;;;;;4.70;2.43;;;5.50;99.90;;;;;;4982747;28;20295;-53
2021/04/07 11:17:35;;;;;;;3.53;2.37;;;5.50;99.90;;;;;;5006102;28;20869;-52
2021/04/07 11:20:02;;;;;;;5.67;2.03;;;5.40;99.90;;;;;;4994683;28;20243;-54
2021/04/07 11:22:28;;;;;;;6.20;2.87;;;5.40;99.90;;;;;;4985427;28;20805;-50
2021/04/07 11:24:55;;;;;;;8.43;2.33;;;5.50;99.90;;;;;;5002074;28;20284;-58
2021/04/07 11:27:22;;;;;;;2.30;1.43;;;5.50;99.90;;;;;;4989739;28;20239;-52
2021/04/07 11:29:49;;;;;;;3.50;1.70;;;5.40;99.90;;;;;;4982517;28;20220;-53
2021/04/07 11:32:17;;;;;;;4.53;1.87;;;5.30;99.90;;;;;;4997588;28;20201;-54
2021/04/07 11:34:50;;;;;;;1.80;1.40;;;5.30;99.90;;;;;;5003082;28;20200;-51
2021/04/07 11:37:25;;;;;;;4.17;2.27;;;5.20;99.90;;;;;;4993413;28;20216;-50
2021/04/07 11:39:54;;;;;;;4.20;2.33;;;5.20;99.90;;;;;;4997552;28;20247;-48
2021/04/07 11:42:24;;;;;;;4.10;2.83;;;5.10;99.90;;;;;;4996417;28;20271;-55
2021/04/07 11:44:50;;;;;;;5.57;2.13;;;5.10;99.90;;;;;;4998861;28;20212;-47
2021/04/07 11:47:16;;;;;;;1.70;1.60;;;5.10;99.90;;;;;;4979865;28;20693;-54
2021/04/07 11:49:43;;;;;;;3.77;1.70;;;5.10;99.90;;;;;;5002180;28;20248;-52
2021/04/07 11:52:11;;;;;;;2.00;1.77;;;5.20;99.90;;;;;;4997168;28;20575;-50
2021/04/07 11:54:37;;;;;;;3.57;1.20;;;5.20;99.90;;;;;;5000754;28;20193;-50
2021/04/07 11:57:04;;;;;;;2.00;1.50;;;5.10;99.90;;;;;;4999365;28;20205;-53
2021/04/07 11:59:31;;;;;;;2.30;1.10;;;5.10;99.90;;;;;;4995735;28;20934;-53
2021/04/07 12:02:00;;;;;;;3.50;0.90;;;5.00;99.90;;;;;;4987564;28;20219;-50
2021/04/07 12:04:28;;;;;;;3.33;1.23;;;4.90;99.90;;;;;;4989197;28;20553;-53
2021/04/07 12:06:55;;;;;;;5.30;1.63;;;4.80;99.90;;;;;;4991049;28;20223;-53
2021/04/07 12:09:21;;;;;;;6.47;1.70;;;4.90;99.90;;;;;;4997972;28;20221;-54
2021/04/07 12:11:48;;;;;;;3.00;1.50;;;5.00;99.90;;;;;;4997116;28;20213;-52
2021/04/07 12:14:14;;;;;;;4.50;1.40;;;5.10;99.90;;;;;;4998859;28;20204;-51
2021/04/07 12:16:42;;;;;;;3.40;1.70;;;5.00;99.90;;;;;;4980146;28;20949;-49
2021/04/07 12:19:10;;;;;;;5.90;1.50;;;5.00;99.90;;;;;;5000214;28;20723;-56
2021/04/07 12:21:37;;;;;;;2.50;0.80;;;5.10;99.90;;;;;;4989579;28;20207;-48
2021/04/07 12:24:05;;;;;;;2.27;0.93;;;5.10;99.90;;;;;;4996968;28;20201;-50
2021/04/07 12:26:31;;;;;;;2.30;1.27;;;5.20;99.90;;;;;;4994342;28;20250;-47
2021/04/07 12:28:58;;;;;;;2.87;0.80;;;5.20;99.90;;;;;;4998150;28;20279;-47
2021/04/07 12:31:24;;;;;;;1.50;0.77;;;5.20;99.90;;;;;;4989082;28;20653;-53
2021/04/07 12:33:52;;;;;;;5.80;1.00;;;5.20;99.90;;;;;;4982360;28;20208;-50
2021/04/07 12:36:19;;;;;;;1.90;0.70;;;5.20;99.90;;;;;;4990133;28;20569;-53
2021/04/07 12:38:46;;;;;;;2.60;1.20;;;5.10;99.90;;;;;;4993532;28;20197;-52
2021/04/07 12:41:18;;;;;;;1.27;1.00;;;5.00;99.90;;;;;;4996506;28;20239;-52
2021/04/07 12:43:44;;;;;;;1.50;0.93;;;4.90;99.90;;;;;;4995805;28;20204;-52
2021/04/07 12:46:10;;;;;;;4.10;0.90;;;4.80;99.90;;;;;;4997761;28;20200;-54
2021/04/07 12:48:36;;;;;;;4.53;1.00;;;4.70;99.90;;;;;;4979574;28;20442;-49
2021/04/07 12:51:04;;;;;;;2.83;0.80;;;4.50;99.90;;;;;;5002235;28;20236;-48
2021/04/07 12:53:30;;;;;;;2.17;0.80;;;4.40;99.90;;;;;;4993185;28;20199;-51
2021/04/07 12:55:56;;;;;;;4.07;1.10;;;4.30;99.90;;;;;;5007067;28;20733;-55
2021/04/07 12:58:23;;;;;;;3.57;1.07;;;4.30;99.90;;;;;;4999288;28;20248;-54